Time;durP1;ratioP1;P1;durP2;ratioP2;P2;SDS_P1;SDS_P2;PMS_P1;PMS_P2;Temp;Humidity;BMP_temperature;BMP_pressure;BME280_temperature;BME280_humidity;BME280_pressure;Samples;Min_cycle;Max_cycle;Signal;HPM_P1;HPM_P2
2021/05/13 07:12:46;;;;;;;19.48;15.00;;;;;;;;;;4980284;28;20448;-66
2021/05/13 07:15:12;;;;;;;18.50;14.68;;;;;;;;;;4994997;28;20546;-66
2021/05/13 07:17:38;;;;;;;27.55;16.00;;;;;;;;;;4995009;28;20052;-67
2021/05/13 07:20:05;;;;;;;17.52;14.68;;;;;;;;;;4994690;28;20430;-66
2021/05/13 07:22:31;;;;;;;17.63;14.82;;;;;;;;;;4994401;28;20129;-66
2021/05/13 07:24:57;;;;;;;17.02;15.23;;;;;;;;;;4994419;28;20487;-66
2021/05/13 07:27:23;;;;;;;21.35;16.83;;;;;;;;;;4994465;28;20116;-68
2021/05/13 07:29:49;;;;;;;18.73;16.48;;;;;;;;;;4993854;28;20027;-65
2021/05/13 07:32:15;;;;;;;23.13;18.65;;;;;;;;;;4994516;28;20034;-67
2021/05/13 07:34:41;;;;;;;24.88;18.38;;;;;;;;;;4994807;28;20048;-70
2021/05/13 07:37:07;;;;;;;23.02;20.08;;;;;;;;;;4994394;28;20022;-67
2021/05/13 07:39:33;;;;;;;20.70;18.63;;;;;;;;;;4994544;28;20027;-67
2021/05/13 07:41:59;;;;;;;22.38;19.98;;;;;;;;;;4994096;28;20036;-70
2021/05/13 07:44:26;;;;;;;24.35;20.42;;;;;;;;;;4994167;28;20085;-66
2021/05/13 07:46:54;;;;;;;19.48;17.45;;;;;;;;;;4994241;28;20030;-68
2021/05/13 07:49:20;;;;;;;21.25;19.02;;;;;;;;;;4994513;28;20117;-67
2021/05/13 07:51:46;;;;;;;22.40;19.17;;;;;;;;;;4994154;28;20022;-67
2021/05/13 07:54:13;;;;;;;23.95;18.10;;;;;;;;;;4993272;28;20026;-68
2021/05/13 07:56:39;;;;;;;18.23;16.27;;;;;;;;;;4993586;28;20031;-68
2021/05/13 07:59:05;;;;;;;21.35;18.10;;;;;;;;;;4994263;28;20030;-67
2021/05/13 08:01:31;;;;;;;19.38;17.38;;;;;;;;;;4994504;28;20037;-67
2021/05/13 08:03:57;;;;;;;20.25;17.80;;;;;;;;;;4991974;28;20038;-66
2021/05/13 08:06:23;;;;;;;18.63;15.95;;;;;;;;;;4975050;28;20081;-66
2021/05/13 08:08:50;;;;;;;18.02;15.55;;;;;;;;;;4974897;28;20034;-69
2021/05/13 08:11:16;;;;;;;20.13;15.52;;;;;;;;;;4974345;28;20062;-68
2021/05/13 08:13:42;;;;;;;18.55;15.52;;;;;;;;;;4974322;28;20034;-68
2021/05/13 08:16:08;;;;;;;17.23;14.32;;;;;;;;;;4974137;28;20047;-67
2021/05/13 08:18:34;;;;;;;16.35;14.75;;;;;;;;;;4974899;28;20468;-67
2021/05/13 08:21:01;;;;;;;15.48;14.05;;;;;;;;;;4974567;28;20384;-70
2021/05/13 08:23:27;;;;;;;15.43;13.90;;;;;;;;;;4973849;28;20126;-68
2021/05/13 08:25:53;;;;;;;15.05;13.35;;;;;;;;;;4973874;28;20033;-69
2021/05/13 08:28:19;;;;;;;15.30;13.32;;;;;;;;;;4974078;28;20424;-68
2021/05/13 08:30:45;;;;;;;17.42;13.63;;;;;;;;;;4974315;28;20117;-68
2021/05/13 08:33:11;;;;;;;13.57;12.23;;;;;;;;;;4974008;28;20027;-69
2021/05/13 08:35:37;;;;;;;14.52;13.05;;;;;;;;;;4974161;28;20026;-68
2021/05/13 08:38:03;;;;;;;16.38;13.18;;;;;;;;;;4974078;28;20027;-68
2021/05/13 08:40:30;;;;;;;15.10;12.55;;;;;;;;;;4974186;28;20042;-68
2021/05/13 08:42:56;;;;;;;18.38;13.95;;;;;;;;;;4974049;28;20081;-68
2021/05/13 08:45:22;;;;;;;23.10;13.18;;;;;;;;;;4973974;28;20058;-68
2021/05/13 08:47:48;;;;;;;14.00;12.15;;;;;;;;;;4974024;28;20530;-64
2021/05/13 08:50:15;;;;;;;14.32;12.63;;;;;;;;;;4974043;28;20046;-67
2021/05/13 08:52:41;;;;;;;14.15;12.80;;;;;;;;;;4973862;28;20101;-67
2021/05/13 08:55:07;;;;;;;14.02;12.68;;;;;;;;;;4973972;28;20027;-67
2021/05/13 08:57:33;;;;;;;17.90;11.93;;;;;;;;;;4973759;28;20031;-67
2021/05/13 08:59:59;;;;;;;13.75;11.63;;;;;;;;;;4973599;28;20387;-68
2021/05/13 09:02:29;;;;;;;15.43;12.85;;;;;;;;;;4974462;28;20180;-69
2021/05/13 09:04:56;;;;;;;13.23;12.02;;;;;;;;;;4975151;28;20033;-69
2021/05/13 09:07:26;;;;;;;14.25;12.88;;;;;;;;;;4977665;28;20054;-68
2021/05/13 09:10:08;;;;;;;14.40;13.00;;;;;;;;;;4976648;28;20392;-69
2021/05/13 09:12:36;;;;;;;13.30;12.00;;;;;;;;;;4977032;28;20145;-69
2021/05/13 09:15:14;;;;;;;14.30;12.90;;;;;;;;;;4977529;28;20085;-69
2021/05/13 09:17:41;;;;;;;16.33;14.60;;;;;;;;;;4977288;28;20037;-69
2021/05/13 09:20:21;;;;;;;12.18;11.02;;;;;;;;;;4977236;28;20415;-67
2021/05/13 09:22:47;;;;;;;12.25;11.15;;;;;;;;;;4977730;28;20384;-66
2021/05/13 09:25:13;;;;;;;17.10;13.05;;;;;;;;;;4978099;28;20022;-65
2021/05/13 09:27:43;;;;;;;17.42;11.25;;;;;;;;;;4978014;28;20037;-67
2021/05/13 09:30:17;;;;;;;13.10;11.77;;;;;;;;;;4977809;28;20050;-69
2021/05/13 09:32:44;;;;;;;13.95;12.55;;;;;;;;;;4977889;28;20031;-69
2021/05/13 09:35:11;;;;;;;14.25;12.82;;;;;;;;;;4977659;28;20065;-69
2021/05/13 09:37:39;;;;;;;14.82;12.48;;;;;;;;;;4977744;28;20406;-68
2021/05/13 09:40:07;;;;;;;15.70;12.02;;;;;;;;;;4977835;28;20027;-68
2021/05/13 09:42:33;;;;;;;13.68;12.27;;;;;;;;;;4977516;28;20038;-68
2021/05/13 09:44:59;;;;;;;17.50;12.38;;;;;;;;;;4977342;28;20460;-68
2021/05/13 09:47:27;;;;;;;16.65;13.10;;;;;;;;;;4977442;28;20035;-70
2021/05/13 09:50:01;;;;;;;14.43;12.68;;;;;;;;;;4977378;28;20026;-68
2021/05/13 09:52:45;;;;;;;13.75;12.10;;;;;;;;;;4977826;28;20035;-68
2021/05/13 09:55:13;;;;;;;18.83;12.25;;;;;;;;;;4977256;28;20029;-68
2021/05/13 09:57:39;;;;;;;14.02;11.93;;;;;;;;;;4977290;28;20389;-68
2021/05/13 10:00:06;;;;;;;17.83;12.77;;;;;;;;;;4977178;28;20088;-68
2021/05/13 10:02:32;;;;;;;15.95;12.88;;;;;;;;;;4976912;28;20038;-68
2021/05/13 10:04:59;;;;;;;15.98;12.65;;;;;;;;;;4976997;28;20027;-68
2021/05/13 10:07:26;;;;;;;16.33;12.18;;;;;;;;;;4977302;28;20031;-68
2021/05/13 10:09:52;;;;;;;17.48;13.07;;;;;;;;;;4976773;28;20111;-68
2021/05/13 10:12:18;;;;;;;25.60;17.23;;;;;;;;;;4977282;28;20082;-68
2021/05/13 10:14:44;;;;;;;36.40;19.85;;;;;;;;;;4976859;28;20372;-69
2021/05/13 10:17:10;;;;;;;31.77;18.25;;;;;;;;;;4976769;28;20027;-69
2021/05/13 10:19:42;;;;;;;27.45;19.17;;;;;;;;;;4977206;28;20027;-69
2021/05/13 10:22:09;;;;;;;31.60;20.42;;;;;;;;;;4977160;28;20027;-67
2021/05/13 10:24:35;;;;;;;36.60;19.92;;;;;;;;;;4976863;28;20038;-68
2021/05/13 10:27:01;;;;;;;26.58;19.75;;;;;;;;;;4976422;28;20086;-68
2021/05/13 10:29:33;;;;;;;34.85;19.67;;;;;;;;;;4976389;28;20027;-68
2021/05/13 10:32:21;;;;;;;26.50;19.50;;;;;;;;;;4977113;28;20027;-68
2021/05/13 10:34:54;;;;;;;26.98;18.52;;;;;;;;;;4977003;28;20037;-68
2021/05/13 10:37:41;;;;;;;28.13;16.83;;;;;;;;;;4976550;28;20590;-68
2021/05/13 10:40:43;;;;;;;31.85;19.30;;;;;;;;;;4963019;28;20031;-68
2021/05/13 10:43:09;;;;;;;25.63;17.73;;;;;;;;;;4964228;28;20547;-68
2021/05/13 10:45:50;;;;;;;20.45;16.92;;;;;;;;;;4976402;28;20469;-68
2021/05/13 10:48:25;;;;;;;20.70;15.77;;;;;;;;;;4976027;28;20420;-67
2021/05/13 10:50:53;;;;;;;24.48;13.85;;;;;;;;;;4976942;28;20117;-67
2021/05/13 10:53:46;;;;;;;16.25;13.43;;;;;;;;;;4976159;28;20460;-67
2021/05/13 10:56:32;;;;;;;20.35;11.35;;;;;;;;;;4976172;28;20027;-67
2021/05/13 10:59:03;;;;;;;19.13;12.05;;;;;;;;;;4962357;28;20027;-67
2021/05/13 11:01:50;;;;;;;18.50;9.80;;;;;;;;;;4976421;28;20027;-67
2021/05/13 11:04:36;;;;;;;10.77;9.77;;;;;;;;;;4962000;28;20472;-68
2021/05/13 11:07:04;;;;;;;15.15;8.38;;;;;;;;;;4961559;28;20478;-67
2021/05/13 11:09:51;;;;;;;18.05;10.57;;;;;;;;;;4982038;28;20507;-70
2021/05/13 11:12:21;;;;;;;24.80;11.07;;;;;;;;;;4969174;28;20066;-68
2021/05/13 11:15:12;;;;;;;14.48;9.38;;;;;;;;;;4984548;28;20515;-71
2021/05/13 11:18:01;;;;;;;14.52;10.50;;;;;;;;;;4984658;28;20027;-68
2021/05/13 11:20:47;;;;;;;15.30;9.00;;;;;;;;;;4975159;28;20027;-68
2021/05/13 11:23:15;;;;;;;17.23;9.77;;;;;;;;;;4980105;28;20097;-68
2021/05/13 11:25:43;;;;;;;22.33;10.73;;;;;;;;;;4994406;28;20026;-69
2021/05/13 11:28:26;;;;;;;15.30;10.75;;;;;;;;;;4990692;28;20022;-75
2021/05/13 11:30:53;;;;;;;12.10;9.10;;;;;;;;;;4956247;29;20090;-67
2021/05/13 11:33:19;;;;;;;11.10;9.10;;;;;;;;;;4956043;28;20029;-68
2021/05/13 11:35:45;;;;;;;11.65;9.18;;;;;;;;;;4974850;28;20026;-68
2021/05/13 11:38:15;;;;;;;12.45;9.73;;;;;;;;;;4973933;28;20468;-82
2021/05/13 11:40:41;;;;;;;11.18;9.15;;;;;;;;;;4974087;28;20027;-73
2021/05/13 11:43:28;;;;;;;14.25;9.65;;;;;;;;;;4974649;28;20125;-69
2021/05/13 11:45:55;;;;;;;11.95;8.55;;;;;;;;;;4960428;28;20461;-68
2021/05/13 11:48:22;;;;;;;12.02;8.70;;;;;;;;;;4974001;28;20030;-77
2021/05/13 11:50:48;;;;;;;13.23;8.15;;;;;;;;;;4993865;28;20023;-68
2021/05/13 11:53:15;;;;;;;12.30;8.10;;;;;;;;;;4993728;28;20033;-66
2021/05/13 11:55:41;;;;;;;13.32;8.70;;;;;;;;;;4994217;28;20022;-67
2021/05/13 11:58:08;;;;;;;11.60;8.73;;;;;;;;;;4992080;28;20038;-72
2021/05/13 12:00:34;;;;;;;12.10;9.32;;;;;;;;;;4973204;28;20499;-68
2021/05/13 12:03:08;;;;;;;18.65;8.00;;;;;;;;;;4974280;28;20049;-70
2021/05/13 12:05:51;;;;;;;12.95;8.75;;;;;;;;;;4974267;28;20444;-68
2021/05/13 12:08:18;;;;;;;18.58;7.65;;;;;;;;;;4973426;28;20019;-69
2021/05/13 12:10:44;;;;;;;10.50;7.05;;;;;;;;;;4992974;28;20033;-70
2021/05/13 12:13:10;;;;;;;13.98;8.10;;;;;;;;;;4993748;28;20058;-67
2021/05/13 12:15:36;;;;;;;8.98;6.97;;;;;;;;;;4993884;28;20484;-67
2021/05/13 12:18:02;;;;;;;14.00;8.13;;;;;;;;;;4993275;28;20088;-77
2021/05/13 12:20:28;;;;;;;13.65;7.65;;;;;;;;;;4972413;28;20034;-70
2021/05/13 12:22:55;;;;;;;11.15;6.32;;;;;;;;;;4974633;28;20168;-71
2021/05/13 12:25:21;;;;;;;9.18;7.45;;;;;;;;;;4974537;28;20030;-72
2021/05/13 12:27:47;;;;;;;9.02;6.80;;;;;;;;;;4974580;28;20062;-71
2021/05/13 12:30:14;;;;;;;12.45;7.38;;;;;;;;;;4987460;28;20058;-71
2021/05/13 12:32:40;;;;;;;7.72;6.30;;;;;;;;;;4993488;28;20057;-69
2021/05/13 12:35:26;;;;;;;7.30;6.53;;;;;;;;;;4993793;28;20019;-69
2021/05/13 12:37:52;;;;;;;13.57;7.05;;;;;;;;;;4993297;28;20025;-69
2021/05/13 12:40:19;;;;;;;9.38;6.80;;;;;;;;;;4976807;28;20027;-68
2021/05/13 12:42:45;;;;;;;7.85;6.60;;;;;;;;;;4978235;28;20031;-69
2021/05/13 12:45:16;;;;;;;7.40;6.78;;;;;;;;;;4977790;28;20518;-68
2021/05/13 12:47:42;;;;;;;7.82;6.65;;;;;;;;;;4978482;28;20035;-70
2021/05/13 12:50:08;;;;;;;9.18;6.57;;;;;;;;;;4975985;28;20027;-69
2021/05/13 12:52:34;;;;;;;7.13;6.30;;;;;;;;;;4977994;28;20031;-68
2021/05/13 12:55:21;;;;;;;11.27;6.80;;;;;;;;;;4991645;28;20023;-68
2021/05/13 12:57:47;;;;;;;8.35;6.00;;;;;;;;;;4982606;28;20114;-72
2021/05/13 13:00:14;;;;;;;7.43;6.40;;;;;;;;;;4990566;28;20039;-71
2021/05/13 13:02:40;;;;;;;8.43;6.00;;;;;;;;;;4956759;28;20105;-68
2021/05/13 13:05:07;;;;;;;9.93;6.72;;;;;;;;;;4958496;29;20028;-68
2021/05/13 13:07:34;;;;;;;7.93;7.03;;;;;;;;;;4958171;29;20031;-67
2021/05/13 13:10:19;;;;;;;11.55;6.50;;;;;;;;;;4957664;29;20031;-72
2021/05/13 13:12:46;;;;;;;9.65;6.88;;;;;;;;;;4943641;29;20051;-69
2021/05/13 13:15:13;;;;;;;7.18;6.35;;;;;;;;;;4958129;28;20034;-69
2021/05/13 13:17:42;;;;;;;11.27;6.07;;;;;;;;;;4957624;29;20485;-69
2021/05/13 13:20:09;;;;;;;7.60;6.10;;;;;;;;;;4958070;29;20377;-68
2021/05/13 13:22:36;;;;;;;8.90;6.57;;;;;;;;;;4958003;29;20027;-69
2021/05/13 13:25:05;;;;;;;7.78;6.30;;;;;;;;;;4957410;29;20465;-73
2021/05/13 13:27:35;;;;;;;9.10;7.00;;;;;;;;;;4968757;28;20497;-68
2021/05/13 13:30:01;;;;;;;8.85;7.20;;;;;;;;;;4977148;28;20031;-70
2021/05/13 13:32:28;;;;;;;7.68;5.82;;;;;;;;;;4975109;28;20030;-69
2021/05/13 13:35:00;;;;;;;6.40;5.82;;;;;;;;;;4975726;28;20119;-69
2021/05/13 13:37:26;;;;;;;7.55;6.20;;;;;;;;;;4976590;28;20030;-73
2021/05/13 13:39:52;;;;;;;6.53;5.88;;;;;;;;;;4976671;28;20030;-69
2021/05/13 13:42:19;;;;;;;6.90;5.85;;;;;;;;;;4977165;28;20026;-68
2021/05/13 13:44:45;;;;;;;7.85;6.32;;;;;;;;;;4976481;28;20119;-68
2021/05/13 13:47:11;;;;;;;6.97;6.03;;;;;;;;;;4977027;28;20050;-68
2021/05/13 13:49:37;;;;;;;7.30;5.90;;;;;;;;;;4974744;28;20023;-69
2021/05/13 13:52:03;;;;;;;5.78;5.18;;;;;;;;;;4974398;28;20038;-74
2021/05/13 13:54:29;;;;;;;5.43;4.93;;;;;;;;;;4974884;28;20027;-69
2021/05/13 13:56:55;;;;;;;8.18;5.90;;;;;;;;;;4975637;28;20014;-69
2021/05/13 13:59:22;;;;;;;7.00;5.78;;;;;;;;;;4974724;28;20464;-69
2021/05/13 14:01:48;;;;;;;7.43;6.15;;;;;;;;;;4974488;28;20508;-73
2021/05/13 14:04:14;;;;;;;19.77;5.68;;;;;;;;;;4974654;28;20453;-68
2021/05/13 14:06:40;;;;;;;8.73;6.50;;;;;;;;;;4974738;28;20106;-69
2021/05/13 14:09:06;;;;;;;5.88;5.28;;;;;;;;;;4974365;28;20085;-69
2021/05/13 14:11:35;;;;;;;8.93;5.18;;;;;;;;;;4974284;28;20051;-68
2021/05/13 14:14:03;;;;;;;5.65;5.15;;;;;;;;;;4973745;28;20026;-69
2021/05/13 14:16:29;;;;;;;9.23;5.70;;;;;;;;;;4971054;28;20566;-69
2021/05/13 14:18:55;;;;;;;7.78;5.53;;;;;;;;;;4974173;28;20030;-68
2021/05/13 14:21:21;;;;;;;8.50;6.22;;;;;;;;;;4973355;28;20034;-72
2021/05/13 14:23:48;;;;;;;4.88;4.47;;;;;;;;;;4974748;28;20162;-70
2021/05/13 14:26:14;;;;;;;5.30;4.80;;;;;;;;;;4975795;28;20027;-68
2021/05/13 14:28:40;;;;;;;10.00;5.65;;;;;;;;;;4976175;28;20078;-68
2021/05/13 14:31:06;;;;;;;7.57;4.90;;;;;;;;;;4975718;28;20037;-68
2021/05/13 14:33:32;;;;;;;7.47;5.55;;;;;;;;;;4976196;28;20038;-68
2021/05/13 14:35:58;;;;;;;5.55;5.05;;;;;;;;;;4975913;28;20019;-70
2021/05/13 14:38:25;;;;;;;8.82;4.82;;;;;;;;;;4975964;28;20031;-68
2021/05/13 14:40:51;;;;;;;6.15;5.05;;;;;;;;;;4975760;28;20107;-69
2021/05/13 14:43:17;;;;;;;10.25;5.68;;;;;;;;;;4976481;28;20487;-69
2021/05/13 14:45:43;;;;;;;9.25;5.13;;;;;;;;;;4975429;28;20480;-68
2021/05/13 14:48:17;;;;;;;7.50;5.18;;;;;;;;;;4974957;28;20645;-68
2021/05/13 14:50:45;;;;;;;5.32;4.55;;;;;;;;;;4973112;28;20468;-70
2021/05/13 14:53:11;;;;;;;9.73;5.03;;;;;;;;;;4974144;28;20023;-72
2021/05/13 14:55:37;;;;;;;9.55;5.82;;;;;;;;;;4974326;28;20065;-67
2021/05/13 14:58:06;;;;;;;5.10;4.60;;;;;;;;;;4973725;28;20082;-67
2021/05/13 15:00:36;;;;;;;9.60;5.63;;;;;;;;;;4973936;28;20537;-65
2021/05/13 15:03:02;;;;;;;8.93;4.80;;;;;;;;;;4972788;28;20077;-67
2021/05/13 15:05:28;;;;;;;6.43;5.35;;;;;;;;;;4970803;28;20038;-65
2021/05/13 15:07:54;;;;;;;8.00;4.88;;;;;;;;;;4973418;28;20123;-66
2021/05/13 15:10:21;;;;;;;7.00;4.82;;;;;;;;;;4974090;28;20539;-66
2021/05/13 15:12:47;;;;;;;5.43;4.25;;;;;;;;;;4973558;28;20079;-68
2021/05/13 15:15:16;;;;;;;5.75;4.50;;;;;;;;;;4973743;28;20073;-65
2021/05/13 15:17:42;;;;;;;5.40;4.30;;;;;;;;;;4973325;28;20025;-67
2021/05/13 15:20:09;;;;;;;7.38;5.10;;;;;;;;;;4970723;28;20388;-67
2021/05/13 15:22:35;;;;;;;4.57;3.72;;;;;;;;;;4974161;28;20046;-66
2021/05/13 15:25:01;;;;;;;5.60;4.97;;;;;;;;;;4972989;28;20031;-68
2021/05/13 15:27:27;;;;;;;4.20;3.85;;;;;;;;;;4975021;28;20035;-68
2021/05/13 15:29:53;;;;;;;4.32;3.88;;;;;;;;;;4974483;28;20037;-66
2021/05/13 15:32:19;;;;;;;4.55;4.13;;;;;;;;;;4974890;28;20362;-69
2021/05/13 15:34:45;;;;;;;6.07;3.67;;;;;;;;;;4974654;28;20037;-67
2021/05/13 15:37:12;;;;;;;4.47;4.07;;;;;;;;;;4974684;28;20085;-69
2021/05/13 15:39:38;;;;;;;21.63;4.10;;;;;;;;;;4969886;28;20023;-69
2021/05/13 15:42:04;;;;;;;5.72;4.43;;;;;;;;;;4972585;28;20114;-69
2021/05/13 15:44:30;;;;;;;6.38;3.95;;;;;;;;;;4973235;28;20035;-68
2021/05/13 15:46:56;;;;;;;10.25;4.18;;;;;;;;;;4973485;28;20023;-69
2021/05/13 15:49:25;;;;;;;7.68;4.43;;;;;;;;;;4973077;28;20022;-69
2021/05/13 15:51:51;;;;;;;5.20;4.03;;;;;;;;;;4974229;28;20117;-67
2021/05/13 15:54:17;;;;;;;4.88;3.83;;;;;;;;;;4974694;28;20030;-66
2021/05/13 15:56:43;;;;;;;8.50;4.32;;;;;;;;;;4974393;28;20023;-67
2021/05/13 15:59:10;;;;;;;4.82;4.30;;;;;;;;;;4973238;28;20097;-74
2021/05/13 16:01:36;;;;;;;5.85;3.25;;;;;;;;;;4991373;28;20058;-70
2021/05/13 16:04:02;;;;;;;6.25;4.07;;;;;;;;;;4993348;28;20042;-66
2021/05/13 16:06:28;;;;;;;4.82;3.15;;;;;;;;;;4993737;28;20109;-66
2021/05/13 16:08:54;;;;;;;5.35;4.07;;;;;;;;;;4993495;28;20027;-66
2021/05/13 16:11:23;;;;;;;6.18;3.45;;;;;;;;;;4993749;28;20045;-66
2021/05/13 16:13:49;;;;;;;6.00;3.45;;;;;;;;;;4976916;28;20029;-67
2021/05/13 16:16:16;;;;;;;4.13;3.50;;;;;;;;;;4974052;28;20023;-66
2021/05/13 16:18:45;;;;;;;3.88;3.45;;;;;;;;;;4973684;28;20624;-66
2021/05/13 16:21:11;;;;;;;4.22;3.53;;;;;;;;;;4973362;28;20031;-66
2021/05/13 16:23:37;;;;;;;7.00;3.55;;;;;;;;;;4973487;28;20475;-66
2021/05/13 16:26:04;;;;;;;7.38;3.60;;;;;;;;;;4973763;28;20033;-65
2021/05/13 16:28:30;;;;;;;5.63;3.03;;;;;;;;;;4974162;28;20038;-65
2021/05/13 16:30:56;;;;;;;3.85;3.03;;;;;;;;;;4974032;28;20035;-66
2021/05/13 16:33:22;;;;;;;3.50;3.20;;;;;;;;;;4974011;28;20438;-66
2021/05/13 16:35:49;;;;;;;6.43;3.60;;;;;;;;;;4973329;28;20441;-66
2021/05/13 16:38:15;;;;;;;10.88;3.58;;;;;;;;;;4974099;28;20034;-66
2021/05/13 16:40:41;;;;;;;3.33;2.97;;;;;;;;;;4973065;28;20663;-66
2021/05/13 16:43:07;;;;;;;9.52;4.00;;;;;;;;;;4973780;28;20067;-66
2021/05/13 16:45:34;;;;;;;20.08;3.70;;;;;;;;;;4973362;28;20027;-66
2021/05/13 16:48:00;;;;;;;11.90;3.97;;;;;;;;;;4973677;28;20027;-66
2021/05/13 16:50:26;;;;;;;3.50;3.20;;;;;;;;;;4974314;28;20428;-66
2021/05/13 16:52:52;;;;;;;6.43;2.90;;;;;;;;;;4973775;28;20034;-66
2021/05/13 16:55:18;;;;;;;19.52;3.70;;;;;;;;;;4974191;28;20034;-66
2021/05/13 16:57:44;;;;;;;9.45;3.28;;;;;;;;;;4973695;28;20126;-66
2021/05/13 17:00:11;;;;;;;3.55;3.25;;;;;;;;;;4973537;28;20070;-66
2021/05/13 17:02:41;;;;;;;4.40;3.42;;;;;;;;;;4973896;28;20046;-66
2021/05/13 17:05:10;;;;;;;6.93;3.53;;;;;;;;;;4973545;28;20065;-66
2021/05/13 17:07:36;;;;;;;6.20;3.35;;;;;;;;;;4974021;28;20106;-68
2021/05/13 17:10:03;;;;;;;6.80;3.67;;;;;;;;;;4973627;28;20128;-66
2021/05/13 17:12:29;;;;;;;6.10;3.28;;;;;;;;;;4962479;28;20146;-67
2021/05/13 17:14:55;;;;;;;3.20;2.90;;;;;;;;;;4954038;29;20485;-66
2021/05/13 17:17:21;;;;;;;12.27;3.83;;;;;;;;;;4954438;29;20038;-67
2021/05/13 17:19:47;;;;;;;9.48;3.50;;;;;;;;;;4953963;29;20151;-67
2021/05/13 17:22:15;;;;;;;6.55;3.55;;;;;;;;;;4953307;29;20047;-68
2021/05/13 17:24:42;;;;;;;7.68;3.40;;;;;;;;;;4952743;28;20042;-67
2021/05/13 17:27:08;;;;;;;5.22;3.10;;;;;;;;;;4951895;29;20162;-67
2021/05/13 17:29:34;;;;;;;13.00;3.80;;;;;;;;;;4954474;29;20024;-68
2021/05/13 17:32:00;;;;;;;12.55;5.10;;;;;;;;;;4957096;29;20503;-67
2021/05/13 17:34:26;;;;;;;20.42;8.82;;;;;;;;;;4957589;29;20162;-67
2021/05/13 17:36:54;;;;;;;14.75;9.35;;;;;;;;;;4958181;29;20369;-68
2021/05/13 17:39:26;;;;;;;11.18;8.82;;;;;;;;;;4957674;29;20031;-67
2021/05/13 17:41:52;;;;;;;20.80;9.65;;;;;;;;;;4957336;29;20079;-69
2021/05/13 17:44:18;;;;;;;13.95;8.48;;;;;;;;;;4957197;29;20043;-67
2021/05/13 17:46:44;;;;;;;14.80;8.95;;;;;;;;;;4957968;29;20473;-68
2021/05/13 17:49:10;;;;;;;14.50;9.02;;;;;;;;;;4957563;29;20023;-68
2021/05/13 17:51:37;;;;;;;14.02;9.32;;;;;;;;;;4957566;29;20162;-67
2021/05/13 17:54:03;;;;;;;16.30;8.95;;;;;;;;;;4957140;29;20154;-68
2021/05/13 17:56:29;;;;;;;9.98;7.65;;;;;;;;;;4956374;29;20030;-67
2021/05/13 17:58:55;;;;;;;23.80;9.45;;;;;;;;;;4955709;29;20019;-66
2021/05/13 18:01:22;;;;;;;16.08;7.78;;;;;;;;;;4955592;29;20118;-68
2021/05/13 18:03:48;;;;;;;12.00;6.07;;;;;;;;;;4955862;29;20039;-68
2021/05/13 18:06:14;;;;;;;19.83;7.65;;;;;;;;;;4956390;29;20576;-66
2021/05/13 18:08:41;;;;;;;21.98;8.80;;;;;;;;;;4956786;29;20027;-66
2021/05/13 18:11:08;;;;;;;10.98;7.93;;;;;;;;;;4956754;29;20024;-68
2021/05/13 18:13:34;;;;;;;12.93;6.47;;;;;;;;;;4975481;28;20125;-67
2021/05/13 18:16:00;;;;;;;11.52;8.02;;;;;;;;;;4975453;28;20113;-67
2021/05/13 18:18:26;;;;;;;10.05;7.75;;;;;;;;;;4974442;28;20059;-69
2021/05/13 18:21:01;;;;;;;10.35;7.70;;;;;;;;;;4974972;28;20023;-67
2021/05/13 18:23:27;;;;;;;12.05;7.93;;;;;;;;;;4974334;28;20201;-67
2021/05/13 18:25:54;;;;;;;17.08;8.75;;;;;;;;;;4974259;28;20015;-68
2021/05/13 18:28:20;;;;;;;11.48;7.90;;;;;;;;;;4974126;28;20030;-67
2021/05/13 18:30:48;;;;;;;11.73;7.47;;;;;;;;;;4974131;28;20388;-65
2021/05/13 18:33:14;;;;;;;9.63;7.25;;;;;;;;;;4973990;28;20038;-66
2021/05/13 18:35:40;;;;;;;17.30;8.05;;;;;;;;;;4974661;28;20027;-67
2021/05/13 18:38:07;;;;;;;11.70;8.00;;;;;;;;;;4974778;28;20026;-67
2021/05/13 18:40:33;;;;;;;10.88;6.88;;;;;;;;;;4975730;28;20361;-67
2021/05/13 18:43:00;;;;;;;9.77;7.80;;;;;;;;;;4975428;28;20397;-66
2021/05/13 18:45:27;;;;;;;9.35;8.20;;;;;;;;;;4976569;28;20449;-65
2021/05/13 18:47:53;;;;;;;13.18;7.75;;;;;;;;;;4975427;28;20019;-66
2021/05/13 18:50:20;;;;;;;15.68;6.68;;;;;;;;;;4975295;28;20027;-66
2021/05/13 18:52:46;;;;;;;9.45;6.40;;;;;;;;;;4976060;28;20027;-66
2021/05/13 18:55:15;;;;;;;10.63;7.32;;;;;;;;;;4972046;28;20105;-70
2021/05/13 18:57:42;;;;;;;11.15;7.18;;;;;;;;;;4975332;28;20031;-68
2021/05/13 19:00:08;;;;;;;11.50;7.35;;;;;;;;;;4975425;28;20022;-66
2021/05/13 19:02:34;;;;;;;11.68;7.63;;;;;;;;;;4975296;28;20524;-65
2021/05/13 19:05:00;;;;;;;13.05;7.22;;;;;;;;;;4967570;28;20022;-64
2021/05/13 19:07:26;;;;;;;9.13;6.95;;;;;;;;;;4975044;28;20031;-64
2021/05/13 19:09:58;;;;;;;13.18;7.30;;;;;;;;;;4975034;28;20050;-65
2021/05/13 19:12:25;;;;;;;8.75;7.10;;;;;;;;;;4975411;28;20101;-65
2021/05/13 19:14:51;;;;;;;12.90;7.55;;;;;;;;;;4975620;28;20073;-65
2021/05/13 19:17:17;;;;;;;10.25;8.45;;;;;;;;;;4975040;28;20476;-66
2021/05/13 19:19:44;;;;;;;7.90;6.53;;;;;;;;;;4975361;28;20031;-65
2021/05/13 19:22:10;;;;;;;10.90;8.20;;;;;;;;;;4974506;28;20027;-66
2021/05/13 19:24:36;;;;;;;10.55;7.82;;;;;;;;;;4974797;28;20043;-64
2021/05/13 19:27:02;;;;;;;10.40;7.65;;;;;;;;;;4974914;28;20049;-64
2021/05/13 19:29:44;;;;;;;8.13;7.30;;;;;;;;;;4974504;28;20023;-69
2021/05/13 19:37:42;;;;;;;9.20;7.45;;;;;;;;;;4960902;28;20045;-65
2021/05/13 19:40:09;;;;;;;8.90;8.00;;;;;;;;;;4974805;28;20023;-65
2021/05/13 19:42:35;;;;;;;10.50;7.63;;;;;;;;;;4974822;28;20460;-66
2021/05/13 19:45:01;;;;;;;16.30;8.40;;;;;;;;;;4975201;28;20027;-67
2021/05/13 19:47:27;;;;;;;9.98;8.07;;;;;;;;;;4975081;28;20027;-69
2021/05/13 19:49:55;;;;;;;9.25;8.07;;;;;;;;;;4974181;28;20030;-65
2021/05/13 19:52:21;;;;;;;8.77;7.97;;;;;;;;;;4973898;28;20062;-66
2021/05/13 19:54:47;;;;;;;7.95;7.20;;;;;;;;;;4975149;28;20082;-66
2021/05/13 19:57:13;;;;;;;7.75;7.05;;;;;;;;;;4974748;28;20480;-65
2021/05/13 19:59:41;;;;;;;8.57;7.20;;;;;;;;;;4974642;28;20027;-66
2021/05/13 20:02:24;;;;;;;15.07;7.57;;;;;;;;;;4974117;28;20026;-66
2021/05/13 20:07:52;;;;;;;11.82;7.75;;;;;;;;;;4960497;28;20035;-66
2021/05/13 20:10:27;;;;;;;8.32;7.53;;;;;;;;;;4974524;28;20033;-67
2021/05/13 20:12:53;;;;;;;9.43;7.38;;;;;;;;;;4974275;28;20089;-66
2021/05/13 20:15:19;;;;;;;8.10;7.03;;;;;;;;;;4974827;28;20109;-66
2021/05/13 20:17:45;;;;;;;7.57;5.95;;;;;;;;;;4974770;28;20023;-66
2021/05/13 20:20:12;;;;;;;8.80;7.05;;;;;;;;;;4974274;28;20027;-67
2021/05/13 20:22:43;;;;;;;7.05;6.25;;;;;;;;;;4974303;28;20027;-66
2021/05/13 20:25:38;;;;;;;9.32;6.80;;;;;;;;;;4974481;28;20461;-67
2021/05/13 20:27:57;;;;;;;7.65;6.85;;;;;;;;;;4960060;28;20037;-65
2021/05/13 20:30:25;;;;;;;7.03;6.32;;;;;;;;;;4974595;28;20019;-66
2021/05/13 20:32:53;;;;;;;7.93;5.82;;;;;;;;;;4974247;28;20035;-66
2021/05/13 20:35:20;;;;;;;6.13;5.32;;;;;;;;;;4974559;28;20029;-65
2021/05/13 20:37:46;;;;;;;6.68;6.05;;;;;;;;;;4974053;28;20383;-66
2021/05/13 20:40:16;;;;;;;9.75;5.68;;;;;;;;;;4974631;28;20030;-65
2021/05/13 20:42:49;;;;;;;8.43;6.30;;;;;;;;;;4974286;28;20114;-65
2021/05/13 20:45:15;;;;;;;6.88;5.40;;;;;;;;;;4974405;28;20070;-65
2021/05/13 20:47:45;;;;;;;7.30;5.88;;;;;;;;;;4974391;28;20038;-65
2021/05/13 20:50:13;;;;;;;6.20;5.60;;;;;;;;;;4973831;28;20027;-65
2021/05/13 21:00:57;;;;;;;5.47;4.97;;;;;;;;;;4963007;28;20035;-66
2021/05/13 21:03:29;;;;;;;6.78;6.03;;;;;;;;;;4978069;28;20035;-66
2021/05/13 21:06:07;;;;;;;10.73;6.22;;;;;;;;;;4974048;28;20046;-66
2021/05/13 21:08:40;;;;;;;7.35;5.75;;;;;;;;;;4978109;28;20030;-64
2021/05/13 21:11:17;;;;;;;11.32;10.05;;;;;;;;;;4977612;28;20029;-70
2021/05/13 21:22:12;;;;;;;7.38;6.70;;;;;;;;;;4963633;28;20050;-67
2021/05/13 21:30:12;;;;;;;7.85;7.13;;;;;;;;;;4962846;28;20568;-68
2021/05/13 21:32:38;;;;;;;8.57;7.78;;;;;;;;;;4977425;28;20473;-67
2021/05/13 21:35:05;;;;;;;8.23;7.43;;;;;;;;;;4977766;28;20070;-68
2021/05/13 21:37:31;;;;;;;7.22;6.53;;;;;;;;;;4977646;28;20031;-68
2021/05/13 21:39:57;;;;;;;8.85;8.05;;;;;;;;;;4977213;28;20392;-68
2021/05/13 21:42:23;;;;;;;9.63;7.05;;;;;;;;;;4977091;28;20031;-68
2021/05/13 21:44:49;;;;;;;7.07;6.38;;;;;;;;;;4977383;28;20039;-67
2021/05/13 21:47:24;;;;;;;7.65;6.88;;;;;;;;;;4977526;28;20023;-67
2021/05/13 21:49:50;;;;;;;9.52;5.97;;;;;;;;;;4976954;28;20489;-67
2021/05/13 21:52:16;;;;;;;7.22;6.53;;;;;;;;;;4977441;28;20037;-67
2021/05/13 21:54:43;;;;;;;6.60;6.00;;;;;;;;;;4977157;28;20031;-68
2021/05/13 21:57:10;;;;;;;6.18;5.63;;;;;;;;;;4977115;28;20050;-69
2021/05/13 21:59:37;;;;;;;7.57;6.82;;;;;;;;;;4977042;28;20031;-68
2021/05/13 22:02:04;;;;;;;7.22;6.32;;;;;;;;;;4976720;28;20027;-68
2021/05/13 22:04:33;;;;;;;6.18;5.68;;;;;;;;;;4976699;28;20031;-68
2021/05/13 22:06:59;;;;;;;8.20;5.88;;;;;;;;;;4976811;28;20031;-68
2021/05/13 22:09:25;;;;;;;7.40;6.70;;;;;;;;;;4977314;28;20034;-68
2021/05/13 22:11:52;;;;;;;7.05;6.45;;;;;;;;;;4976093;28;20047;-68
2021/05/13 22:14:20;;;;;;;6.88;6.28;;;;;;;;;;4977709;28;20375;-68
2021/05/13 22:16:46;;;;;;;9.45;7.60;;;;;;;;;;4976679;28;20409;-68
2021/05/13 22:19:12;;;;;;;13.43;10.85;;;;;;;;;;4977052;28;20023;-68
2021/05/13 22:21:44;;;;;;;16.33;10.73;;;;;;;;;;4976943;28;20027;-68